sensor_id;sensor_type;location;lat;lon;timestamp;pressure;altitude;pressure_sealevel;temperature;humidity
51972;BME280;37991;49.662;10.060;2022-11-15T00:00:11;99125.59;;;6.33;100.00
51972;BME280;37991;49.662;10.060;2022-11-15T00:02:55;99122.00;;;6.35;100.00
51972;BME280;37991;49.662;10.060;2022-11-15T00:05:39;99120.22;;;6.36;100.00
51972;BME280;37991;49.662;10.060;2022-11-15T00:08:23;99120.88;;;6.39;100.00
51972;BME280;37991;49.662;10.060;2022-11-15T00:11:10;99116.63;;;6.38;100.00
51972;BME280;37991;49.662;10.060;2022-11-15T00:13:57;99120.78;;;6.41;100.00
51972;BME280;37991;49.662;10.060;2022-11-15T00:16:41;99118.19;;;6.41;100.00
51972;BME280;37991;49.662;10.060;2022-11-15T00:19:25;99116.63;;;6.38;100.00
51972;BME280;37991;49.662;10.060;2022-11-15T00:22:09;99117.28;;;6.42;100.00
51972;BME280;37991;49.662;10.060;2022-11-15T00:24:53;99116.41;;;6.41;100.00
51972;BME280;37991;49.662;10.060;2022-11-15T00:27:37;99110.38;;;6.41;100.00
51972;BME280;37991;49.662;10.060;2022-11-15T00:30:21;99115.34;;;6.45;100.00
51972;BME280;37991;49.662;10.060;2022-11-15T00:33:06;99113.56;;;6.46;100.00
51972;BME280;37991;49.662;10.060;2022-11-15T00:35:50;99110.03;;;6.47;100.00
51972;BME280;37991;49.662;10.060;2022-11-15T00:38:36;99120.28;;;6.50;100.00
51972;BME280;37991;49.662;10.060;2022-11-15T00:41:21;99115.25;;;6.47;100.00
51972;BME280;37991;49.662;10.060;2022-11-15T00:44:05;99117.00;;;6.46;100.00
51972;BME280;37991;49.662;10.060;2022-11-15T00:46:49;99114.34;;;6.48;100.00
51972;BME280;37991;49.662;10.060;2022-11-15T00:49:33;99112.75;;;6.45;100.00
51972;BME280;37991;49.662;10.060;2022-11-15T00:52:16;99113.41;;;6.49;100.00
51972;BME280;37991;49.662;10.060;2022-11-15T00:55:00;99117.09;;;6.45;100.00
51972;BME280;37991;49.662;10.060;2022-11-15T00:57:46;99113.66;;;6.44;100.00
51972;BME280;37991;49.662;10.060;2022-11-15T01:00:29;99109.13;;;6.48;100.00
51972;BME280;37991;49.662;10.060;2022-11-15T01:03:13;99113.41;;;6.49;100.00
51972;BME280;37991;49.662;10.060;2022-11-15T01:05:59;99110.88;;;6.47;100.00
51972;BME280;37991;49.662;10.060;2022-11-15T01:08:43;99109.13;;;6.48;100.00
51972;BME280;37991;49.662;10.060;2022-11-15T01:11:27;99103.94;;;6.48;100.00
51972;BME280;37991;49.662;10.060;2022-11-15T01:14:11;99111.81;;;6.46;100.00
51972;BME280;37991;49.662;10.060;2022-11-15T01:16:55;99105.00;;;6.44;100.00
51972;BME280;37991;49.662;10.060;2022-11-15T01:19:39;99097.47;;;6.39;100.00
51972;BME280;37991;49.662;10.060;2022-11-15T01:22:23;99096.72;;;6.37;100.00
51972;BME280;37991;49.662;10.060;2022-11-15T01:25:07;99093.44;;;6.34;100.00
51972;BME280;37991;49.662;10.060;2022-11-15T01:27:51;99092.13;;;6.26;100.00
51972;BME280;37991;49.662;10.060;2022-11-15T01:30:35;99093.22;;;6.22;100.00
51972;BME280;37991;49.662;10.060;2022-11-15T01:33:19;99088.25;;;6.18;100.00
51972;BME280;37991;49.662;10.060;2022-11-15T01:36:04;99082.50;;;6.13;100.00
51972;BME280;37991;49.662;10.060;2022-11-15T01:38:56;99075.75;;;6.09;100.00
51972;BME280;37991;49.662;10.060;2022-11-15T01:41:41;99075.28;;;6.02;100.00
51972;BME280;37991;49.662;10.060;2022-11-15T01:47:25;99062.59;;;5.96;100.00
51972;BME280;37991;49.662;10.060;2022-11-15T01:50:14;99058.47;;;5.92;100.00
51972;BME280;37991;49.662;10.060;2022-11-15T01:52:59;99055.44;;;5.83;100.00
51972;BME280;37991;49.662;10.060;2022-11-15T01:55:43;99051.13;;;5.84;100.00
51972;BME280;37991;49.662;10.060;2022-11-15T01:58:27;99049.34;;;5.85;100.00
51972;BME280;37991;49.662;10.060;2022-11-15T02:01:14;99050.41;;;5.80;100.00
51972;BME280;37991;49.662;10.060;2022-11-15T02:04:34;99041.78;;;5.80;100.00
51972;BME280;37991;49.662;10.060;2022-11-15T02:07:13;99043.88;;;5.73;100.00
51972;BME280;37991;49.662;10.060;2022-11-15T02:10:03;99045.97;;;5.67;100.00
51972;BME280;37991;49.662;10.060;2022-11-15T02:12:49;99044.16;;;5.69;100.00
51972;BME280;37991;49.662;10.060;2022-11-15T02:15:36;99053.63;;;5.70;100.00
51972;BME280;37991;49.662;10.060;2022-11-15T02:18:32;99048.50;;;5.68;100.00
51972;BME280;37991;49.662;10.060;2022-11-15T02:21:49;99043.66;;;5.62;100.00
51972;BME280;37991;49.662;10.060;2022-11-15T02:24:50;99046.47;;;5.57;100.00
51972;BME280;37991;49.662;10.060;2022-11-15T02:28:12;99036.50;;;5.50;100.00
51972;BME280;37991;49.662;10.060;2022-11-15T02:31:10;99032.25;;;5.49;100.00
51972;BME280;37991;49.662;10.060;2022-11-15T02:34:34;99034.06;;;5.47;100.00
51972;BME280;37991;49.662;10.060;2022-11-15T02:37:39;99014.38;;;5.43;100.00
51972;BME280;37991;49.662;10.060;2022-11-15T02:41:15;99024.94;;;5.40;100.00
51972;BME280;37991;49.662;10.060;2022-11-15T02:44:04;99025.09;;;5.36;100.00
51972;BME280;37991;49.662;10.060;2022-11-15T02:46:57;99022.69;;;5.33;100.00
51972;BME280;37991;49.662;10.060;2022-11-15T02:50:02;99011.63;;;5.30;100.00
51972;BME280;37991;49.662;10.060;2022-11-15T02:52:49;99005.97;;;5.22;100.00
51972;BME280;37991;49.662;10.060;2022-11-15T02:55:40;99017.34;;;5.19;100.00
51972;BME280;37991;49.662;10.060;2022-11-15T02:58:52;99011.31;;;5.19;100.00
51972;BME280;37991;49.662;10.060;2022-11-15T03:07:35;99008.53;;;5.06;100.00
51972;BME280;37991;49.662;10.060;2022-11-15T03:16:04;99006.00;;;4.88;100.00
51972;BME280;37991;49.662;10.060;2022-11-15T03:18:57;99001.03;;;4.84;100.00
51972;BME280;37991;49.662;10.060;2022-11-15T03:21:42;99005.53;;;4.80;100.00
51972;BME280;37991;49.662;10.060;2022-11-15T03:24:29;98999.84;;;4.74;100.00
51972;BME280;37991;49.662;10.060;2022-11-15T03:27:17;98995.88;;;4.66;100.00
51972;BME280;37991;49.662;10.060;2022-11-15T03:30:07;99002.28;;;4.59;100.00
51972;BME280;37991;49.662;10.060;2022-11-15T03:32:56;98992.00;;;4.58;100.00
51972;BME280;37991;49.662;10.060;2022-11-15T03:35:44;98992.97;;;4.55;100.00
51972;BME280;37991;49.662;10.060;2022-11-15T03:38:30;98992.09;;;4.56;100.00
51972;BME280;37991;49.662;10.060;2022-11-15T03:41:31;98986.97;;;4.55;100.00
51972;BME280;37991;49.662;10.060;2022-11-15T03:47:36;98985.66;;;4.46;100.00
51972;BME280;37991;49.662;10.060;2022-11-15T03:50:23;98979.22;;;4.37;100.00
51972;BME280;37991;49.662;10.060;2022-11-15T03:53:08;98983.47;;;4.38;100.00
51972;BME280;37991;49.662;10.060;2022-11-15T03:55:51;98978.50;;;4.34;100.00
51972;BME280;37991;49.662;10.060;2022-11-15T03:58:35;98979.44;;;4.33;100.00
51972;BME280;37991;49.662;10.060;2022-11-15T04:01:19;98976.94;;;4.31;100.00
51972;BME280;37991;49.662;10.060;2022-11-15T04:04:03;98976.16;;;4.29;100.00
51972;BME280;37991;49.662;10.060;2022-11-15T04:06:47;98965.09;;;4.26;100.00
51972;BME280;37991;49.662;10.060;2022-11-15T04:09:31;98961.81;;;4.22;100.00
51972;BME280;37991;49.662;10.060;2022-11-15T04:12:15;98968.91;;;4.18;100.00
51972;BME280;37991;49.662;10.060;2022-11-15T04:15:17;98967.31;;;4.16;100.00
51972;BME280;37991;49.662;10.060;2022-11-15T04:18:01;98968.38;;;4.12;100.00
51972;BME280;37991;49.662;10.060;2022-11-15T04:20:45;98967.66;;;4.08;100.00
51972;BME280;37991;49.662;10.060;2022-11-15T04:23:47;98959.97;;;4.07;100.00
51972;BME280;37991;49.662;10.060;2022-11-15T04:26:31;98965.31;;;4.04;100.00
51972;BME280;37991;49.662;10.060;2022-11-15T04:29:16;98960.53;;;3.96;100.00
51972;BME280;37991;49.662;10.060;2022-11-15T04:32:18;98968.34;;;3.94;100.00
51972;BME280;37991;49.662;10.060;2022-11-15T04:35:02;98962.50;;;3.91;100.00
51972;BME280;37991;49.662;10.060;2022-11-15T04:37:46;98970.41;;;3.88;100.00
51972;BME280;37991;49.662;10.060;2022-11-15T04:40:30;98963.47;;;3.88;100.00
51972;BME280;37991;49.662;10.060;2022-11-15T04:43:14;98959.41;;;3.83;100.00
51972;BME280;37991;49.662;10.060;2022-11-15T04:45:58;98974.06;;;3.84;100.00
51972;BME280;37991;49.662;10.060;2022-11-15T04:48:41;98957.75;;;3.82;100.00
51972;BME280;37991;49.662;10.060;2022-11-15T04:51:25;98965.63;;;3.80;100.00
51972;BME280;37991;49.662;10.060;2022-11-15T04:54:09;98956.44;;;3.73;100.00
51972;BME280;37991;49.662;10.060;2022-11-15T04:56:53;98954.22;;;3.65;100.00
51972;BME280;37991;49.662;10.060;2022-11-15T04:59:37;98947.28;;;3.66;100.00
51972;BME280;37991;49.662;10.060;2022-11-15T05:02:21;98947.22;;;3.67;100.00
51972;BME280;37991;49.662;10.060;2022-11-15T05:05:05;98950.72;;;3.66;100.00
51972;BME280;37991;49.662;10.060;2022-11-15T05:07:49;98937.00;;;3.64;100.00
51972;BME280;37991;49.662;10.060;2022-11-15T05:10:33;98943.38;;;3.57;100.00
51972;BME280;37991;49.662;10.060;2022-11-15T05:13:17;98940.72;;;3.59;100.00
51972;BME280;37991;49.662;10.060;2022-11-15T05:16:01;98936.53;;;3.56;100.00
51972;BME280;37991;49.662;10.060;2022-11-15T05:18:45;98944.22;;;3.58;100.00
51972;BME280;37991;49.662;10.060;2022-11-15T05:21:29;98950.31;;;3.57;100.00
51972;BME280;37991;49.662;10.060;2022-11-15T05:24:13;98946.19;;;3.53;100.00
51972;BME280;37991;49.662;10.060;2022-11-15T05:26:57;98938.41;;;3.53;100.00
51972;BME280;37991;49.662;10.060;2022-11-15T05:29:41;98927.44;;;3.47;100.00
51972;BME280;37991;49.662;10.060;2022-11-15T05:32:26;98937.03;;;3.45;100.00
51972;BME280;37991;49.662;10.060;2022-11-15T05:35:39;98920.72;;;3.43;100.00
51972;BME280;37991;49.662;10.060;2022-11-15T05:38:23;98921.78;;;3.39;100.00
51972;BME280;37991;49.662;10.060;2022-11-15T05:41:07;98927.88;;;3.38;100.00
51972;BME280;37991;49.662;10.060;2022-11-15T05:43:52;98928.03;;;3.35;100.00
51972;BME280;37991;49.662;10.060;2022-11-15T05:46:38;98922.91;;;3.34;100.00
51972;BME280;37991;49.662;10.060;2022-11-15T05:49:27;98919.34;;;3.36;100.00
51972;BME280;37991;49.662;10.060;2022-11-15T05:52:16;98916.75;;;3.36;100.00
51972;BME280;37991;49.662;10.060;2022-11-15T05:55:01;98913.69;;;3.28;100.00
51972;BME280;37991;49.662;10.060;2022-11-15T05:57:46;98903.47;;;3.25;100.00
51972;BME280;37991;49.662;10.060;2022-11-15T06:00:31;98894.88;;;3.24;100.00
51972;BME280;37991;49.662;10.060;2022-11-15T06:03:15;98901.94;;;3.21;100.00
51972;BME280;37991;49.662;10.060;2022-11-15T06:05:58;98909.56;;;3.24;100.00
51972;BME280;37991;49.662;10.060;2022-11-15T06:08:42;98907.81;;;3.24;100.00
51972;BME280;37991;49.662;10.060;2022-11-15T06:11:26;98908.63;;;3.25;100.00
51972;BME280;37991;49.662;10.060;2022-11-15T06:14:11;98918.25;;;3.23;100.00
51972;BME280;37991;49.662;10.060;2022-11-15T06:16:55;98920.06;;;3.21;100.00
51972;BME280;37991;49.662;10.060;2022-11-15T06:19:38;98913.22;;;3.20;100.00
51972;BME280;37991;49.662;10.060;2022-11-15T06:22:22;98911.59;;;3.17;100.00
51972;BME280;37991;49.662;10.060;2022-11-15T06:25:06;98916.63;;;3.20;100.00
51972;BME280;37991;49.662;10.060;2022-11-15T06:27:54;98914.03;;;3.20;100.00
51972;BME280;37991;49.662;10.060;2022-11-15T06:30:38;98919.09;;;3.23;100.00
51972;BME280;37991;49.662;10.060;2022-11-15T06:33:22;98916.50;;;3.23;100.00
51972;BME280;37991;49.662;10.060;2022-11-15T06:36:09;98914.38;;;3.32;100.00
51972;BME280;37991;49.662;10.060;2022-11-15T06:38:53;98916.63;;;3.39;100.00
51972;BME280;37991;49.662;10.060;2022-11-15T06:41:37;98916.81;;;3.35;100.00
51972;BME280;37991;49.662;10.060;2022-11-15T06:44:21;98921.50;;;3.45;100.00
51972;BME280;37991;49.662;10.060;2022-11-15T06:47:05;98921.91;;;3.55;100.00
51972;BME280;37991;49.662;10.060;2022-11-15T06:49:49;98920.16;;;3.56;100.00
51972;BME280;37991;49.662;10.060;2022-11-15T06:52:33;98929.28;;;3.63;100.00
51972;BME280;37991;49.662;10.060;2022-11-15T06:55:17;98927.38;;;3.66;100.00
51972;BME280;37991;49.662;10.060;2022-11-15T06:58:01;98930.81;;;3.67;100.00
51972;BME280;37991;49.662;10.060;2022-11-15T07:00:45;98932.50;;;3.68;100.00
51972;BME280;37991;49.662;10.060;2022-11-15T07:03:29;98929.53;;;3.76;100.00
51972;BME280;37991;49.662;10.060;2022-11-15T07:06:13;98926.06;;;3.77;100.00
51972;BME280;37991;49.662;10.060;2022-11-15T07:08:57;98925.72;;;3.83;100.00
51972;BME280;37991;49.662;10.060;2022-11-15T07:11:41;98918.56;;;3.88;100.00
51972;BME280;37991;49.662;10.060;2022-11-15T07:14:25;98918.56;;;3.88;100.00
51972;BME280;37991;49.662;10.060;2022-11-15T07:17:09;98920.97;;;3.92;100.00
51972;BME280;37991;49.662;10.060;2022-11-15T07:19:53;98923.56;;;3.92;100.00
51972;BME280;37991;49.662;10.060;2022-11-15T07:22:37;98922.38;;;3.98;100.00
51972;BME280;37991;49.662;10.060;2022-11-15T07:25:21;98927.34;;;4.03;100.00
51972;BME280;37991;49.662;10.060;2022-11-15T07:28:05;98925.50;;;4.05;100.00
51972;BME280;37991;49.662;10.060;2022-11-15T07:30:49;98923.53;;;4.10;100.00
51972;BME280;37991;49.662;10.060;2022-11-15T07:33:33;98924.31;;;4.12;100.00
51972;BME280;37991;49.662;10.060;2022-11-15T07:36:17;98932.84;;;4.14;100.00
51972;BME280;37991;49.662;10.060;2022-11-15T07:39:02;98926.66;;;4.16;100.00
51972;BME280;37991;49.662;10.060;2022-11-15T07:41:46;98926.50;;;4.19;100.00
51972;BME280;37991;49.662;10.060;2022-11-15T07:44:31;98930.19;;;4.15;100.00
51972;BME280;37991;49.662;10.060;2022-11-15T07:47:15;98923.44;;;4.11;100.00
51972;BME280;37991;49.662;10.060;2022-11-15T07:49:59;98931.84;;;4.16;100.00
51972;BME280;37991;49.662;10.060;2022-11-15T07:52:44;98934.06;;;4.07;100.00
51972;BME280;37991;49.662;10.060;2022-11-15T07:55:28;98931.31;;;4.10;100.00
51972;BME280;37991;49.662;10.060;2022-11-15T07:58:13;98931.59;;;4.21;100.00
51972;BME280;37991;49.662;10.060;2022-11-15T08:00:57;98935.50;;;4.30;100.00
51972;BME280;37991;49.662;10.060;2022-11-15T08:03:41;98943.94;;;4.33;100.00
51972;BME280;37991;49.662;10.060;2022-11-15T08:06:25;98931.22;;;4.29;100.00
51972;BME280;37991;49.662;10.060;2022-11-15T08:09:09;98929.72;;;4.25;100.00
51972;BME280;37991;49.662;10.060;2022-11-15T08:11:53;98921.00;;;4.26;100.00
51972;BME280;37991;49.662;10.060;2022-11-15T08:14:37;98937.88;;;4.34;100.00
51972;BME280;37991;49.662;10.060;2022-11-15T08:17:23;98931.91;;;4.32;100.00
51972;BME280;37991;49.662;10.060;2022-11-15T08:20:07;98924.09;;;4.50;100.00
51972;BME280;37991;49.662;10.060;2022-11-15T08:22:51;98923.78;;;4.56;100.00
51972;BME280;37991;49.662;10.060;2022-11-15T08:25:35;98918.88;;;4.67;100.00
51972;BME280;37991;49.662;10.060;2022-11-15T08:28:19;98919.06;;;4.80;100.00
51972;BME280;37991;49.662;10.060;2022-11-15T08:31:03;98905.78;;;5.02;100.00
51972;BME280;37991;49.662;10.060;2022-11-15T08:33:48;98901.50;;;5.17;100.00
51972;BME280;37991;49.662;10.060;2022-11-15T08:36:32;98899.38;;;5.39;100.00
51972;BME280;37991;49.662;10.060;2022-11-15T08:39:16;98896.59;;;5.58;100.00
51972;BME280;37991;49.662;10.060;2022-11-15T08:42:00;98883.22;;;5.80;100.00
51972;BME280;37991;49.662;10.060;2022-11-15T08:44:44;98886.44;;;5.99;100.00
51972;BME280;37991;49.662;10.060;2022-11-15T08:47:28;98884.94;;;6.25;100.00
51972;BME280;37991;49.662;10.060;2022-11-15T08:50:13;98875.09;;;6.45;100.00
51972;BME280;37991;49.662;10.060;2022-11-15T08:52:57;98878.44;;;6.61;100.00
51972;BME280;37991;49.662;10.060;2022-11-15T08:55:41;98873.13;;;6.77;100.00
51972;BME280;37991;49.662;10.060;2022-11-15T08:58:25;98865.59;;;6.87;100.00
51972;BME280;37991;49.662;10.060;2022-11-15T09:01:20;98857.28;;;7.09;100.00
51972;BME280;37991;49.662;10.060;2022-11-15T09:04:04;98865.59;;;7.28;100.00
51972;BME280;37991;49.662;10.060;2022-11-15T09:06:48;98856.97;;;7.40;100.00
51972;BME280;37991;49.662;10.060;2022-11-15T09:09:32;98858.50;;;7.57;100.00
51972;BME280;37991;49.662;10.060;2022-11-15T09:12:16;98850.06;;;7.66;100.00
51972;BME280;37991;49.662;10.060;2022-11-15T09:15:00;98852.69;;;7.79;100.00
51972;BME280;37991;49.662;10.060;2022-11-15T09:17:44;98858.13;;;7.89;100.00
51972;BME280;37991;49.662;10.060;2022-11-15T09:20:28;98858.66;;;7.94;100.00
51972;BME280;37991;49.662;10.060;2022-11-15T09:23:12;98856.69;;;7.98;100.00
51972;BME280;37991;49.662;10.060;2022-11-15T09:26:01;98859.72;;;8.04;100.00
51972;BME280;37991;49.662;10.060;2022-11-15T09:28:46;98857.44;;;8.12;100.00
51972;BME280;37991;49.662;10.060;2022-11-15T09:31:30;98849.31;;;8.17;100.00
51972;BME280;37991;49.662;10.060;2022-11-15T09:34:15;98854.00;;;8.25;100.00
51972;BME280;37991;49.662;10.060;2022-11-15T09:36:59;98857.13;;;8.30;100.00
51972;BME280;37991;49.662;10.060;2022-11-15T09:39:43;98850.97;;;8.31;100.00
51972;BME280;37991;49.662;10.060;2022-11-15T09:48:49;98847.13;;;8.49;100.00
51972;BME280;37991;49.662;10.060;2022-11-15T09:51:44;98850.75;;;8.59;100.00
51972;BME280;37991;49.662;10.060;2022-11-15T09:57:16;98843.88;;;8.71;100.00
51972;BME280;37991;49.662;10.060;2022-11-15T10:00:00;98825.63;;;8.82;100.00
51972;BME280;37991;49.662;10.060;2022-11-15T10:05:15;98819.53;;;8.95;97.92
51972;BME280;37991;49.662;10.060;2022-11-15T10:10:27;98808.44;;;9.04;98.05
51972;BME280;37991;49.662;10.060;2022-11-15T10:12:55;98805.25;;;9.12;97.65
51972;BME280;37991;49.662;10.060;2022-11-15T10:15:21;98804.00;;;9.17;98.30
51972;BME280;37991;49.662;10.060;2022-11-15T10:20:49;98788.59;;;9.25;99.91
51972;BME280;37991;49.662;10.060;2022-11-15T10:23:20;98798.34;;;9.35;99.02
51972;BME280;37991;49.662;10.060;2022-11-15T10:25:46;98788.53;;;9.38;98.35
51972;BME280;37991;49.662;10.060;2022-11-15T10:28:29;98781.91;;;9.45;99.33
51972;BME280;37991;49.662;10.060;2022-11-15T10:30:57;98784.75;;;9.53;100.00
51972;BME280;37991;49.662;10.060;2022-11-15T10:33:37;98775.91;;;9.67;99.26
51972;BME280;37991;49.662;10.060;2022-11-15T10:38:51;98770.47;;;9.93;96.22
51972;BME280;37991;49.662;10.060;2022-11-15T10:46:31;98754.56;;;10.18;94.45
51972;BME280;37991;49.662;10.060;2022-11-15T10:49:13;98752.09;;;10.28;94.61
51972;BME280;37991;49.662;10.060;2022-11-15T10:51:43;98750.66;;;10.35;94.10
51972;BME280;37991;49.662;10.060;2022-11-15T10:54:10;98743.38;;;10.50;92.51
51972;BME280;37991;49.662;10.060;2022-11-15T10:56:39;98745.25;;;10.70;92.15
51972;BME280;37991;49.662;10.060;2022-11-15T10:59:04;98723.22;;;10.73;92.19
51972;BME280;37991;49.662;10.060;2022-11-15T11:01:30;98719.84;;;10.82;91.94
51972;BME280;37991;49.662;10.060;2022-11-15T11:06:27;98723.22;;;11.26;89.13
51972;BME280;37991;49.662;10.060;2022-11-15T11:08:58;98720.59;;;11.26;88.48
51972;BME280;37991;49.662;10.060;2022-11-15T11:11:24;98727.59;;;11.37;88.33
51972;BME280;37991;49.662;10.060;2022-11-15T11:13:50;98721.38;;;11.38;89.61
51972;BME280;37991;49.662;10.060;2022-11-15T11:16:41;98719.66;;;11.48;89.69
51972;BME280;37991;49.662;10.060;2022-11-15T11:19:26;98714.22;;;11.61;89.37
51972;BME280;37991;49.662;10.060;2022-11-15T11:21:59;98707.56;;;11.78;87.31
51972;BME280;37991;49.662;10.060;2022-11-15T11:24:36;98714.53;;;11.68;90.00
51972;BME280;37991;49.662;10.060;2022-11-15T11:30:01;98708.19;;;11.70;89.41
51972;BME280;37991;49.662;10.060;2022-11-15T11:32:47;98704.13;;;11.77;90.07
51972;BME280;37991;49.662;10.060;2022-11-15T11:35:27;98703.72;;;11.82;90.50
51972;BME280;37991;49.662;10.060;2022-11-15T11:43:28;98694.88;;;12.04;88.46
51972;BME280;37991;49.662;10.060;2022-11-15T11:46:09;98698.88;;;12.08;88.82
51972;BME280;37991;49.662;10.060;2022-11-15T11:48:48;98695.44;;;12.07;90.30
51972;BME280;37991;49.662;10.060;2022-11-15T11:51:29;98696.97;;;12.10;90.46
51972;BME280;37991;49.662;10.060;2022-11-15T11:54:00;98690.75;;;12.11;91.38
51972;BME280;37991;49.662;10.060;2022-11-15T11:56:31;98692.13;;;12.15;91.26
51972;BME280;37991;49.662;10.060;2022-11-15T12:02:11;98679.19;;;12.23;93.72
51972;BME280;37991;49.662;10.060;2022-11-15T12:04:40;98692.16;;;12.25;93.20
51972;BME280;37991;49.662;10.060;2022-11-15T12:09:46;98688.31;;;12.29;92.46
51972;BME280;37991;49.662;10.060;2022-11-15T12:12:44;98689.97;;;12.30;93.12
51972;BME280;37991;49.662;10.060;2022-11-15T12:15:16;98686.38;;;12.31;90.63
51972;BME280;37991;49.662;10.060;2022-11-15T12:17:44;98679.06;;;12.34;90.51
51972;BME280;37991;49.662;10.060;2022-11-15T12:20:17;98688.34;;;12.39;90.88
51972;BME280;37991;49.662;10.060;2022-11-15T12:25:44;98680.88;;;12.44;94.38
51972;BME280;37991;49.662;10.060;2022-11-15T12:28:21;98682.03;;;12.51;92.07
51972;BME280;37991;49.662;10.060;2022-11-15T12:31:00;98674.53;;;12.46;91.74
51972;BME280;37991;49.662;10.060;2022-11-15T12:33:33;98667.63;;;12.45;91.27
51972;BME280;37991;49.662;10.060;2022-11-15T12:36:05;98658.75;;;12.46;92.08
51972;BME280;37991;49.662;10.060;2022-11-15T12:38:50;98652.28;;;12.50;93.70
51972;BME280;37991;49.662;10.060;2022-11-15T12:41:18;98652.97;;;12.52;94.64
51972;BME280;37991;49.662;10.060;2022-11-15T12:43:45;98643.16;;;12.54;95.49
51972;BME280;37991;49.662;10.060;2022-11-15T12:48:56;98626.28;;;12.57;91.32
51972;BME280;37991;49.662;10.060;2022-11-15T12:59:48;98612.88;;;12.60;91.95
51972;BME280;37991;49.662;10.060;2022-11-15T13:02:22;98617.19;;;12.61;90.33
51972;BME280;37991;49.662;10.060;2022-11-15T13:04:49;98611.22;;;12.59;91.02
51972;BME280;37991;49.662;10.060;2022-11-15T13:17:51;98594.19;;;12.63;92.12
51972;BME280;37991;49.662;10.060;2022-11-15T13:20:29;98588.13;;;12.63;91.88
51972;BME280;37991;49.662;10.060;2022-11-15T13:28:22;98591.28;;;12.66;94.30
51972;BME280;37991;49.662;10.060;2022-11-15T13:30:55;98589.66;;;12.65;93.59
51972;BME280;37991;49.662;10.060;2022-11-15T13:35:53;98583.84;;;12.62;93.98
51972;BME280;37991;49.662;10.060;2022-11-15T13:38:33;98576.78;;;12.62;94.14
51972;BME280;37991;49.662;10.060;2022-11-15T13:41:00;98578.59;;;12.62;94.24
51972;BME280;37991;49.662;10.060;2022-11-15T13:43:35;98562.13;;;12.69;93.29
51972;BME280;37991;49.662;10.060;2022-11-15T13:46:07;98565.16;;;12.65;89.38
51972;BME280;37991;49.662;10.060;2022-11-15T13:48:34;98572.34;;;12.63;90.34
51972;BME280;37991;49.662;10.060;2022-11-15T13:51:09;98560.03;;;12.63;91.22
51972;BME280;37991;49.662;10.060;2022-11-15T13:53:37;98555.50;;;12.65;92.02
51972;BME280;37991;49.662;10.060;2022-11-15T13:56:05;98550.66;;;12.61;92.50
51972;BME280;37991;49.662;10.060;2022-11-15T13:58:31;98563.94;;;12.59;93.40
51972;BME280;37991;49.662;10.060;2022-11-15T14:01:03;98550.09;;;12.57;94.84
51972;BME280;37991;49.662;10.060;2022-11-15T14:03:35;98560.03;;;12.53;95.09
51972;BME280;37991;49.662;10.060;2022-11-15T14:06:13;98554.66;;;12.45;96.98
51972;BME280;37991;49.662;10.060;2022-11-15T14:09:04;98557.41;;;12.44;98.00
51972;BME280;37991;49.662;10.060;2022-11-15T14:11:27;98542.91;;;12.40;99.30
51972;BME280;37991;49.662;10.060;2022-11-15T14:14:13;98548.31;;;12.38;100.00
51972;BME280;37991;49.662;10.060;2022-11-15T14:16:47;98540.84;;;12.33;100.00
51972;BME280;37991;49.662;10.060;2022-11-15T14:19:34;98544.84;;;12.28;100.00
51972;BME280;37991;49.662;10.060;2022-11-15T14:22:18;98536.28;;;12.26;100.00
51972;BME280;37991;49.662;10.060;2022-11-15T14:25:03;98538.34;;;12.22;100.00
51972;BME280;37991;49.662;10.060;2022-11-15T14:27:31;98530.88;;;12.18;100.00
51972;BME280;37991;49.662;10.060;2022-11-15T14:29:56;98529.34;;;12.15;100.00
51972;BME280;37991;49.662;10.060;2022-11-15T14:32:28;98530.47;;;12.13;100.00
51972;BME280;37991;49.662;10.060;2022-11-15T14:34:58;98517.88;;;12.06;100.00
51972;BME280;37991;49.662;10.060;2022-11-15T14:37:32;98527.41;;;12.07;100.00
51972;BME280;37991;49.662;10.060;2022-11-15T14:40:00;98528.78;;;12.02;100.00
51972;BME280;37991;49.662;10.060;2022-11-15T14:42:26;98517.72;;;11.98;100.00
51972;BME280;37991;49.662;10.060;2022-11-15T14:44:51;98523.13;;;11.97;100.00
51972;BME280;37991;49.662;10.060;2022-11-15T14:47:17;98519.38;;;11.90;100.00
51972;BME280;37991;49.662;10.060;2022-11-15T14:49:43;98516.84;;;11.78;100.00
51972;BME280;37991;49.662;10.060;2022-11-15T14:52:38;98508.69;;;11.72;100.00
51972;BME280;37991;49.662;10.060;2022-11-15T14:55:13;98508.50;;;11.63;100.00
51972;BME280;37991;49.662;10.060;2022-11-15T14:57:40;98501.31;;;11.56;100.00
51972;BME280;37991;49.662;10.060;2022-11-15T15:00:06;98495.53;;;11.52;100.00
51972;BME280;37991;49.662;10.060;2022-11-15T15:05:23;98496.69;;;11.38;100.00
51972;BME280;37991;49.662;10.060;2022-11-15T15:07:50;98490.06;;;11.34;100.00
51972;BME280;37991;49.662;10.060;2022-11-15T15:10:17;98485.34;;;11.28;100.00
51972;BME280;37991;49.662;10.060;2022-11-15T15:12:43;98480.53;;;11.24;100.00
51972;BME280;37991;49.662;10.060;2022-11-15T15:15:13;98480.22;;;11.17;100.00
51972;BME280;37991;49.662;10.060;2022-11-15T15:17:39;98470.53;;;11.08;100.00
51972;BME280;37991;49.662;10.060;2022-11-15T15:20:05;98463.84;;;11.04;100.00
51972;BME280;37991;49.662;10.060;2022-11-15T15:22:31;98466.31;;;10.96;100.00
51972;BME280;37991;49.662;10.060;2022-11-15T15:24:56;98461.59;;;10.89;100.00
51972;BME280;37991;49.662;10.060;2022-11-15T15:27:21;98459.38;;;10.85;100.00
51972;BME280;37991;49.662;10.060;2022-11-15T15:29:47;98454.25;;;10.83;100.00
51972;BME280;37991;49.662;10.060;2022-11-15T15:32:12;98453.94;;;10.77;100.00
51972;BME280;37991;49.662;10.060;2022-11-15T15:34:38;98456.00;;;10.73;100.00
51972;BME280;37991;49.662;10.060;2022-11-15T15:37:23;98451.41;;;10.65;100.00
51972;BME280;37991;49.662;10.060;2022-11-15T15:39:50;98453.59;;;10.60;100.00